Time;durP1;ratioP1;P1;durP2;ratioP2;P2;SDS_P1;SDS_P2;PMS_P1;PMS_P2;Temp;Humidity;BMP_temperature;BMP_pressure;BME280_temperature;BME280_humidity;BME280_pressure;Samples;Min_cycle;Max_cycle;Signal;HPM_P1;HPM_P2
2022/03/03 00:02:19;;;;;;;10.70;5.92;;;;;;;3.41;70.05;100307.53;1703697;82;21110;-60
2022/03/03 00:04:45;;;;;;;17.23;6.53;;;;;;;3.46;70.05;100302.92;1677195;84;21110;-60
2022/03/03 00:07:12;;;;;;;10.88;7.40;;;;;;;3.49;70.04;100302.30;1704772;82;21136;-60
2022/03/03 00:09:38;;;;;;;13.18;7.33;;;;;;;3.50;70.06;100301.40;1701596;84;21030;-60
2022/03/03 00:12:07;;;;;;;14.07;7.37;;;;;;;3.49;70.00;100298.41;1716013;81;21087;-59
2022/03/03 00:14:34;;;;;;;12.65;6.65;;;;;;;3.47;69.99;100295.52;1700158;83;21090;-60
2022/03/03 00:17:02;;;;;;;15.25;7.65;;;;;;;3.42;70.07;100293.62;1680314;82;21039;-60
2022/03/03 00:19:29;;;;;;;14.85;6.95;;;;;;;3.38;70.15;100293.38;1678188;83;21080;-60
2022/03/03 00:21:56;;;;;;;16.60;6.90;;;;;;;3.35;70.18;100294.39;1683919;83;21007;-59
2022/03/03 00:24:23;;;;;;;12.37;7.33;;;;;;;3.34;70.12;100290.09;1725097;82;21059;-59
2022/03/03 00:26:49;;;;;;;12.78;7.80;;;;;;;3.38;69.99;100282.97;1739159;80;21476;-60
2022/03/03 00:29:15;;;;;;;13.10;8.03;;;;;;;3.42;69.97;100284.51;1715964;82;21043;-60
2022/03/03 00:31:42;;;;;;;12.33;6.85;;;;;;;3.41;70.08;100283.65;1702227;83;21865;-60
2022/03/03 00:34:08;;;;;;;13.30;7.83;;;;;;;3.40;70.11;100283.29;1685187;83;21039;-60
2022/03/03 00:36:35;;;;;;;13.83;7.40;;;;;;;3.38;70.13;100279.94;1700820;84;21007;-60
2022/03/03 00:39:03;;;;;;;14.35;7.67;;;;;;;3.33;70.22;100272.83;1724478;82;21066;-60
2022/03/03 00:41:30;;;;;;;13.53;7.05;;;;;;;3.30;70.33;100275.58;1726844;82;21560;-60
2022/03/03 00:43:56;;;;;;;12.88;6.97;;;;;;;3.25;70.45;100275.81;1683155;82;21146;-60
2022/03/03 00:46:25;;;;;;;12.70;6.20;;;;;;;3.28;70.28;100276.95;1682872;84;21070;-60
2022/03/03 00:48:52;;;;;;;12.35;7.05;;;;;;;3.35;70.37;100277.02;1695766;82;21095;-60
2022/03/03 00:51:19;;;;;;;13.65;6.62;;;;;;;3.40;70.39;100269.45;1700256;83;21515;-60
2022/03/03 00:53:47;;;;;;;12.78;7.78;;;;;;;3.42;70.29;100265.83;1690414;82;21007;-60
2022/03/03 00:56:13;;;;;;;12.30;6.90;;;;;;;3.42;70.28;100266.30;1697424;82;21133;-60
2022/03/03 00:58:40;;;;;;;14.38;7.55;;;;;;;3.38;70.20;100268.23;1704723;83;21625;-60
2022/03/03 01:01:06;;;;;;;15.32;7.75;;;;;;;3.33;70.34;100267.63;1697222;83;21138;-60
2022/03/03 01:03:33;;;;;;;12.95;6.45;;;;;;;3.29;70.30;100263.48;1701149;82;21074;-60
2022/03/03 01:06:00;;;;;;;12.70;6.97;;;;;;;3.26;70.35;100260.60;1732502;81;21024;-59
2022/03/03 01:08:26;;;;;;;14.13;7.53;;;;;;;3.32;70.26;100256.36;1683129;83;21102;-59
2022/03/03 01:10:53;;;;;;;14.87;7.10;;;;;;;3.38;70.18;100254.36;1699009;83;21056;-60
2022/03/03 01:13:22;;;;;;;14.03;7.55;;;;;;;3.42;70.20;100253.30;1714247;82;21508;-60
2022/03/03 01:15:49;;;;;;;14.13;7.78;;;;;;;3.42;70.27;100256.73;1717216;82;21063;-60
2022/03/03 01:18:16;;;;;;;11.75;6.53;;;;;;;3.44;70.29;100253.58;1714426;82;20987;-60
2022/03/03 01:20:43;;;;;;;14.68;7.97;;;;;;;3.44;70.23;100251.45;1715878;82;21109;-60
2022/03/03 01:23:10;;;;;;;14.78;7.45;;;;;;;3.41;70.16;100254.20;1731841;81;21111;-60
2022/03/03 01:25:36;;;;;;;14.58;8.40;;;;;;;3.34;70.13;100253.21;1738789;81;21463;-60
2022/03/03 01:28:03;;;;;;;10.98;6.45;;;;;;;3.30;70.23;100255.61;1731058;82;21043;-60
2022/03/03 01:30:30;;;;;;;11.78;6.90;;;;;;;3.31;70.25;100257.73;1733017;81;21088;-60
2022/03/03 01:32:57;;;;;;;14.40;7.22;;;;;;;3.36;70.10;100254.44;1721836;81;21164;-60
2022/03/03 01:35:23;;;;;;;12.47;6.60;;;;;;;3.40;70.05;100252.55;1722990;81;21039;-60
2022/03/03 01:37:50;;;;;;;14.90;7.53;;;;;;;3.41;70.08;100251.61;1742591;81;21075;-60
2022/03/03 01:40:17;;;;;;;14.30;7.87;;;;;;;3.39;70.16;100243.87;1734109;80;21037;-59
2022/03/03 01:42:44;;;;;;;13.60;7.15;;;;;;;3.38;70.22;100241.36;1740109;82;21047;-60
2022/03/03 01:45:11;;;;;;;14.68;8.10;;;;;;;3.36;70.28;100242.73;1733298;80;21824;-60
2022/03/03 01:47:37;;;;;;;14.55;8.08;;;;;;;3.35;70.28;100238.47;1737141;81;21034;-59
2022/03/03 01:50:05;;;;;;;13.80;7.72;;;;;;;3.29;70.25;100240.08;1729105;81;21047;-60
2022/03/03 01:52:32;;;;;;;11.83;7.10;;;;;;;3.25;70.30;100235.97;1725285;82;21040;-60
2022/03/03 01:54:59;;;;;;;11.35;7.50;;;;;;;3.30;70.29;100237.41;1693478;82;21038;-60
2022/03/03 01:57:25;;;;;;;16.25;7.17;;;;;;;3.33;70.21;100239.84;1731607;81;21114;-60
2022/03/03 01:59:51;;;;;;;15.03;7.97;;;;;;;3.30;70.34;100234.80;1698138;82;21063;-60
2022/03/03 02:02:18;;;;;;;12.33;6.65;;;;;;;3.27;70.40;100239.33;1721546;81;21011;-60
2022/03/03 02:04:44;;;;;;;13.32;7.22;;;;;;;3.19;70.56;100231.08;1735180;81;21461;-60
2022/03/03 02:07:11;;;;;;;12.88;7.45;;;;;;;3.15;70.74;100235.13;1741976;81;21439;-59
2022/03/03 02:09:37;;;;;;;15.23;7.35;;;;;;;3.12;70.82;100229.25;1718403;80;21122;-60
2022/03/03 02:12:05;;;;;;;10.40;6.35;;;;;;;3.11;70.83;100231.02;1678142;85;21058;-60
2022/03/03 02:14:45;;;;;;;15.28;7.65;;;;;;;3.13;70.93;100224.45;1668301;82;21018;-60
2022/03/03 02:17:11;;;;;;;15.68;8.05;;;;;;;3.12;71.10;100222.28;1729120;80;21482;-60
2022/03/03 02:19:38;;;;;;;11.60;6.67;;;;;;;3.13;71.27;100228.34;1724676;80;21040;-60
2022/03/03 02:22:04;;;;;;;12.20;6.78;;;;;;;3.11;71.23;100221.06;1730839;82;21112;-59
2022/03/03 02:24:31;;;;;;;13.15;7.28;;;;;;;3.05;71.27;100219.63;1734190;81;21095;-59
2022/03/03 02:27:00;;;;;;;14.13;7.20;;;;;;;3.04;71.27;100219.70;1727026;82;21099;-60
2022/03/03 02:29:28;;;;;;;15.23;7.70;;;;;;;3.07;71.20;100215.19;1717340;82;21043;-60
2022/03/03 02:31:54;;;;;;;12.28;6.08;;;;;;;3.09;71.25;100215.97;1715072;82;21054;-60
2022/03/03 02:34:21;;;;;;;11.60;7.53;;;;;;;3.09;71.41;100213.81;1660397;83;21810;-60
2022/03/03 02:36:47;;;;;;;17.90;8.05;;;;;;;3.05;71.50;100211.00;1723220;81;20995;-59
2022/03/03 02:39:13;;;;;;;17.57;8.33;;;;;;;2.99;71.47;100212.14;1733812;81;21076;-60
2022/03/03 02:41:40;;;;;;;12.58;7.65;;;;;;;2.91;71.75;100209.12;1720887;80;22088;-60
2022/03/03 02:44:07;;;;;;;16.50;8.58;;;;;;;2.89;71.84;100197.94;1682046;82;21352;-60
2022/03/03 02:46:33;;;;;;;14.13;8.20;;;;;;;2.94;71.80;100202.00;1687271;84;21170;-60
2022/03/03 02:48:59;;;;;;;15.63;8.60;;;;;;;2.97;71.84;100200.52;1729397;80;21004;-59
2022/03/03 02:51:26;;;;;;;14.03;7.70;;;;;;;2.94;71.89;100193.34;1717944;81;21190;-60
2022/03/03 02:53:52;;;;;;;14.33;8.15;;;;;;;2.90;72.06;100199.63;1681314;84;21555;-59
2022/03/03 02:56:19;;;;;;;14.38;8.40;;;;;;;2.85;72.17;100190.76;1687731;82;21086;-59
2022/03/03 02:58:45;;;;;;;15.63;7.87;;;;;;;2.82;72.26;100192.20;1684894;83;21065;-60
2022/03/03 03:01:11;;;;;;;13.05;7.45;;;;;;;2.79;72.28;100182.83;1683486;83;21011;-60
2022/03/03 03:03:38;;;;;;;12.50;7.33;;;;;;;2.86;72.12;100183.36;1729013;80;21058;-60
2022/03/03 03:06:04;;;;;;;14.50;8.43;;;;;;;2.93;72.07;100181.28;1679239;82;21634;-59
2022/03/03 03:08:31;;;;;;;14.53;7.67;;;;;;;2.93;72.04;100182.11;1714894;82;21057;-60
2022/03/03 03:10:58;;;;;;;13.58;9.35;;;;;;;2.92;72.12;100180.42;1726414;80;21181;-60
2022/03/03 03:13:24;;;;;;;13.50;7.70;;;;;;;2.91;72.14;100177.92;1732187;82;21501;-60
2022/03/03 03:15:51;;;;;;;14.93;8.08;;;;;;;2.90;72.23;100180.13;1736280;81;21527;-60
2022/03/03 03:18:19;;;;;;;13.53;8.00;;;;;;;2.87;72.29;100176.39;1696123;83;21094;-60
2022/03/03 03:20:47;;;;;;;15.48;8.28;;;;;;;2.88;72.18;100176.78;1697199;82;21086;-60
2022/03/03 03:23:16;;;;;;;15.45;8.68;;;;;;;2.92;71.98;100174.39;1725538;82;21904;-60
2022/03/03 03:25:43;;;;;;;13.60;8.20;;;;;;;2.98;72.03;100172.31;1730567;82;21055;-59
2022/03/03 03:28:13;;;;;;;15.72;8.80;;;;;;;3.04;71.86;100165.12;1737208;81;21531;-60
2022/03/03 03:30:40;;;;;;;13.88;7.58;;;;;;;3.05;71.84;100167.64;1737671;81;21348;-60
2022/03/03 03:33:07;;;;;;;20.27;10.38;;;;;;;3.02;71.87;100170.39;1740372;80;21063;-60
2022/03/03 03:35:33;;;;;;;14.55;8.73;;;;;;;2.98;71.91;100161.09;1728047;81;21200;-60
2022/03/03 03:38:00;;;;;;;15.85;8.83;;;;;;;2.97;71.84;100160.23;1736033;81;21069;-60
2022/03/03 03:40:26;;;;;;;12.93;7.20;;;;;;;2.96;71.76;100152.53;1739546;81;21054;-60
2022/03/03 03:42:52;;;;;;;14.05;7.55;;;;;;;3.00;71.68;100151.45;1738036;82;21008;-59
2022/03/03 03:45:19;;;;;;;13.90;7.72;;;;;;;3.07;71.67;100142.86;1738529;80;21458;-59
2022/03/03 03:47:46;;;;;;;13.75;7.33;;;;;;;3.08;71.66;100149.28;1728043;81;21158;-60
2022/03/03 03:50:13;;;;;;;14.68;8.78;;;;;;;3.06;71.72;100144.64;1736022;81;21086;-59
2022/03/03 03:52:41;;;;;;;15.93;7.83;;;;;;;3.04;71.75;100140.42;1719420;81;21499;-60
2022/03/03 03:55:10;;;;;;;15.55;8.10;;;;;;;2.99;71.77;100134.16;1725825;81;21063;-60
2022/03/03 03:57:37;;;;;;;12.90;8.25;;;;;;;2.95;71.86;100133.95;1731388;80;21047;-59
2022/03/03 04:03:15;;;;;;;15.48;7.33;;;;;;;3.05;71.71;100136.44;1627249;81;21064;-60
2022/03/03 04:05:41;;;;;;;16.60;8.35;;;;;;;3.07;71.69;100129.39;1633933;85;21030;-61
2022/03/03 04:08:08;;;;;;;15.13;8.00;;;;;;;3.02;71.79;100126.67;1646264;85;21526;-61
2022/03/03 04:10:36;;;;;;;13.35;7.83;;;;;;;2.98;71.84;100126.00;1650563;85;21549;-60
2022/03/03 04:13:02;;;;;;;12.70;7.05;;;;;;;2.93;71.99;100126.70;1620853;86;21883;-61
2022/03/03 04:15:30;;;;;;;13.30;7.78;;;;;;;2.91;72.04;100129.84;1640776;85;21019;-60
2022/03/03 04:17:56;;;;;;;15.30;7.33;;;;;;;2.95;71.94;100126.16;1651117;86;21628;-61
2022/03/03 04:20:23;;;;;;;16.70;8.53;;;;;;;2.96;71.89;100131.27;1646173;85;21058;-61
2022/03/03 04:22:49;;;;;;;14.03;7.62;;;;;;;2.93;72.05;100130.60;1642598;86;21036;-61
2022/03/03 04:25:16;;;;;;;15.32;8.23;;;;;;;2.90;72.21;100135.48;1643103;85;21893;-61
2022/03/03 04:27:42;;;;;;;13.30;8.70;;;;;;;2.88;72.34;100136.03;1670503;83;21415;-61
2022/03/03 04:30:10;;;;;;;17.50;8.05;;;;;;;2.87;72.42;100119.22;1688077;83;21127;-61
2022/03/03 04:32:38;;;;;;;12.53;7.90;;;;;;;2.91;72.36;100118.16;1698351;82;21053;-61
2022/03/03 04:35:08;;;;;;;14.07;7.40;;;;;;;2.96;72.08;100114.85;1681835;83;21155;-61
2022/03/03 04:37:35;;;;;;;11.90;7.40;;;;;;;3.05;72.02;100120.02;1686847;82;21159;-61
2022/03/03 04:40:03;;;;;;;13.55;8.15;;;;;;;3.06;71.95;100119.94;1674168;83;21099;-61
2022/03/03 04:42:30;;;;;;;11.68;7.05;;;;;;;3.06;71.87;100123.84;1663861;84;21088;-61
2022/03/03 04:44:56;;;;;;;11.80;7.22;;;;;;;3.04;71.84;100119.16;1691720;82;21049;-61
2022/03/03 04:47:22;;;;;;;17.10;8.58;;;;;;;3.01;71.92;100116.75;1697553;83;21084;-61
2022/03/03 04:49:49;;;;;;;10.15;5.97;;;;;;;2.99;71.93;100114.66;1673610;83;21083;-61
2022/03/03 04:52:15;;;;;;;12.95;6.90;;;;;;;3.00;71.91;100112.92;1673914;84;21693;-61
2022/03/03 04:54:42;;;;;;;11.78;6.40;;;;;;;3.06;71.67;100116.04;1643734;86;21015;-60
2022/03/03 04:57:09;;;;;;;10.43;6.22;;;;;;;3.08;71.42;100112.89;1641781;86;21110;-60
2022/03/03 04:59:35;;;;;;;12.70;6.42;;;;;;;3.10;71.30;100113.64;1655701;86;21096;-61
2022/03/03 05:02:02;;;;;;;12.37;6.40;;;;;;;3.06;71.19;100112.58;1654777;84;21747;-62
2022/03/03 05:04:28;;;;;;;14.00;6.60;;;;;;;3.01;71.37;100110.69;1651008;85;21080;-61
2022/03/03 05:06:55;;;;;;;14.13;7.22;;;;;;;2.98;71.57;100115.13;1635282;85;21706;-61
2022/03/03 05:09:21;;;;;;;12.68;7.25;;;;;;;2.96;71.66;100110.95;1626904;86;21100;-61
2022/03/03 05:11:48;;;;;;;13.70;7.90;;;;;;;2.94;71.75;100113.62;1625877;85;21211;-61
2022/03/03 05:14:14;;;;;;;12.13;7.45;;;;;;;2.97;71.73;100117.81;1631975;85;21226;-61
2022/03/03 05:16:41;;;;;;;13.45;8.05;;;;;;;3.05;71.54;100115.65;1620008;85;21095;-61
2022/03/03 05:19:08;;;;;;;11.75;6.35;;;;;;;3.08;71.44;100115.49;1642938;85;21617;-61
2022/03/03 05:21:35;;;;;;;16.90;7.65;;;;;;;3.06;71.57;100116.04;1654209;85;21086;-60
2022/03/03 05:24:02;;;;;;;14.35;7.70;;;;;;;3.05;71.57;100114.34;1647210;85;21086;-61
2022/03/03 05:26:29;;;;;;;13.08;7.62;;;;;;;3.02;71.46;100113.20;1619801;86;21164;-61
2022/03/03 05:28:55;;;;;;;13.00;7.60;;;;;;;2.95;71.63;100112.69;1636005;85;21150;-61
2022/03/03 05:31:22;;;;;;;15.75;6.87;;;;;;;2.96;71.69;100111.78;1634349;85;21075;-60
2022/03/03 05:33:49;;;;;;;14.55;7.37;;;;;;;3.04;71.59;100111.83;1648017;86;21095;-60
2022/03/03 05:36:15;;;;;;;12.30;7.03;;;;;;;3.08;71.46;100114.19;1626700;85;21672;-61
2022/03/03 05:38:42;;;;;;;12.20;7.22;;;;;;;3.08;71.54;100107.69;1617100;87;21216;-60
2022/03/03 05:41:09;;;;;;;13.95;7.72;;;;;;;3.09;71.54;100112.42;1637401;85;21100;-60
2022/03/03 05:43:36;;;;;;;11.38;7.22;;;;;;;3.06;71.47;100110.84;1611359;85;21162;-60
2022/03/03 05:46:03;;;;;;;15.15;6.70;;;;;;;2.99;71.47;100110.77;1634723;85;21150;-61
2022/03/03 05:48:30;;;;;;;11.85;6.12;;;;;;;2.98;71.49;100109.11;1638187;85;21150;-60
2022/03/03 05:50:56;;;;;;;13.28;7.22;;;;;;;3.02;71.38;100111.08;1638606;85;21606;-60
2022/03/03 05:53:23;;;;;;;11.35;6.97;;;;;;;3.00;71.41;100108.55;1635408;85;21149;-61
2022/03/03 05:55:55;;;;;;;12.53;7.15;;;;;;;2.98;71.61;100109.11;1613712;85;21020;-60
2022/03/03 05:58:27;;;;;;;15.38;8.70;;;;;;;2.96;71.72;100103.98;1636473;85;21519;-61
2022/03/03 06:00:54;;;;;;;13.95;7.37;;;;;;;2.93;71.80;100103.31;1642668;85;21102;-60
2022/03/03 06:33:07;;;;;;;15.32;7.70;;;;;;;2.99;71.76;100099.06;1696015;82;21079;-58
2022/03/03 06:35:37;;;;;;;13.68;7.03;;;;;;;2.96;71.84;100096.19;1676173;83;21121;-57
2022/03/03 06:38:06;;;;;;;12.58;7.45;;;;;;;2.96;71.85;100096.66;1667176;82;21132;-60
2022/03/03 06:40:34;;;;;;;13.88;7.67;;;;;;;2.92;71.86;100096.42;1662883;84;21042;-60
2022/03/03 06:43:00;;;;;;;10.98;5.78;;;;;;;2.93;71.79;100100.71;1668972;83;21043;-60
2022/03/03 06:45:29;;;;;;;12.37;7.03;;;;;;;2.99;71.69;100099.06;1668721;83;21113;-60
2022/03/03 06:47:58;;;;;;;15.10;8.38;;;;;;;3.05;71.67;100088.35;1665377;84;21149;-59
2022/03/03 06:50:24;;;;;;;14.85;7.12;;;;;;;3.06;71.52;100088.74;1647152;85;21540;-59
2022/03/03 06:52:51;;;;;;;13.22;6.55;;;;;;;3.07;71.49;100086.50;1675472;83;21073;-59
2022/03/03 06:55:26;;;;;;;13.65;7.05;;;;;;;3.05;71.49;100087.52;1681405;83;21117;-60
2022/03/03 06:57:55;;;;;;;10.53;5.53;;;;;;;3.01;71.44;100093.79;1659884;84;22628;-60
2022/03/03 07:00:25;;;;;;;13.55;6.00;;;;;;;3.05;71.47;100097.92;1677787;83;21579;-60
2022/03/03 07:02:53;;;;;;;9.78;5.97;;;;;;;3.11;71.38;100091.94;1657296;84;21491;-60
2022/03/03 07:05:21;;;;;;;14.00;7.67;;;;;;;3.14;71.33;100096.11;1665842;84;21130;-59
2022/03/03 07:07:52;;;;;;;14.73;7.35;;;;;;;3.14;71.46;100095.67;1680573;84;21070;-59
2022/03/03 07:10:23;;;;;;;12.33;6.97;;;;;;;3.15;71.29;100100.41;1675258;83;22277;-58
2022/03/03 07:12:55;;;;;;;11.03;6.58;;;;;;;3.08;71.40;100095.16;1669013;83;21577;-58
2022/03/03 07:15:23;;;;;;;12.75;6.55;;;;;;;3.06;71.61;100092.64;1670635;83;22306;-60
2022/03/03 07:18:01;;;;;;;14.03;6.58;;;;;;;3.10;71.49;100087.64;1663666;84;21090;-60
2022/03/03 07:20:53;;;;;;;10.65;6.80;;;;;;;3.15;71.43;100087.41;1681035;83;21051;-59
2022/03/03 07:23:41;;;;;;;11.40;6.53;;;;;;;3.19;71.41;100095.88;1682451;83;21045;-59
2022/03/03 07:26:10;;;;;;;13.48;7.47;;;;;;;3.15;71.48;100089.53;1652740;84;21109;-59
2022/03/03 07:28:44;;;;;;;12.15;6.28;;;;;;;3.15;71.57;100089.53;1681174;83;21109;-60
2022/03/03 07:31:11;;;;;;;14.95;7.03;;;;;;;3.15;71.54;100090.00;1643850;84;21125;-59
2022/03/03 07:33:59;;;;;;;13.28;7.10;;;;;;;3.10;71.37;100081.14;1675674;83;21129;-60
2022/03/03 07:36:28;;;;;;;;;;;;;;;3.09;71.32;100083.38;1682184;83;21545;-59
2022/03/03 07:39:04;;;;;;;9.43;5.10;;;;;;;3.16;71.23;100081.27;1678541;83;21095;-59
2022/03/03 07:41:31;;;;;;;16.52;9.83;;;;;;;3.18;71.40;100083.78;1681735;83;21134;-58
2022/03/03 07:44:00;;;;;;;19.15;10.05;;;;;;;3.17;71.41;100076.45;1677161;83;21525;-59
2022/03/03 07:46:27;;;;;;;15.32;9.45;;;;;;;3.21;71.27;100079.72;1685428;84;21074;-66
2022/03/03 07:48:56;;;;;;;17.20;9.68;;;;;;;3.21;71.29;100079.72;1683932;83;21035;-58
2022/03/03 07:51:23;;;;;;;16.12;9.63;;;;;;;3.20;71.35;100079.36;1673084;83;21161;-58
2022/03/03 07:53:52;;;;;;;18.73;10.80;;;;;;;3.18;71.12;100073.38;1673567;84;21039;-59
2022/03/03 07:56:27;;;;;;;19.52;10.13;;;;;;;3.22;70.87;100075.73;1677503;83;21625;-59
2022/03/03 07:59:08;;;;;;;16.87;10.03;;;;;;;3.22;70.88;100080.11;1677519;83;21591;-59
2022/03/03 08:01:36;;;;;;;16.95;9.78;;;;;;;3.18;71.14;100078.58;1651503;85;21676;-59
2022/03/03 08:04:05;;;;;;;14.75;8.80;;;;;;;3.17;71.37;100072.55;1671671;83;21138;-59
2022/03/03 08:06:36;;;;;;;15.48;8.58;;;;;;;3.20;71.25;100074.99;1656654;83;21570;-59
2022/03/03 08:09:03;;;;;;;16.15;8.15;;;;;;;3.30;71.06;100080.06;1646581;85;21023;-59
2022/03/03 08:11:29;;;;;;;14.35;9.58;;;;;;;3.36;70.74;100072.38;1624689;85;21549;-60
2022/03/03 08:13:57;;;;;;;14.03;8.65;;;;;;;3.36;70.65;100076.28;1672116;84;21078;-60
2022/03/03 08:16:26;;;;;;;13.50;8.15;;;;;;;3.34;70.76;100078.96;1672263;83;21019;-60
2022/03/03 08:18:57;;;;;;;16.77;8.48;;;;;;;3.29;70.75;100077.08;1673173;83;21058;-59
2022/03/03 08:21:23;;;;;;;12.37;7.22;;;;;;;3.24;70.87;100076.96;1681946;83;21079;-58
2022/03/03 08:23:49;;;;;;;12.43;7.03;;;;;;;3.24;70.68;100071.77;1679555;83;21156;-59
2022/03/03 08:26:17;;;;;;;13.60;7.03;;;;;;;3.30;70.47;100076.16;1681842;83;21572;-58
2022/03/03 08:28:44;;;;;;;11.68;6.12;;;;;;;3.29;70.64;100071.88;1679198;84;21107;-58
2022/03/03 08:31:10;;;;;;;11.55;6.67;;;;;;;3.28;70.76;100065.02;1662598;84;21074;-58
2022/03/03 09:44:46;;;;;;;12.23;7.20;;;;;;;3.31;70.01;100053.15;1688470;83;21138;-58
2022/03/03 09:47:17;;;;;;;14.30;7.75;;;;;;;3.31;69.85;100054.45;1680341;83;21077;-59
2022/03/03 09:49:46;;;;;;;11.05;7.33;;;;;;;3.36;69.64;100046.38;1677331;83;21538;-58
2022/03/03 09:52:19;;;;;;;10.75;7.05;;;;;;;3.39;69.77;100050.58;1678520;84;21055;-58
2022/03/03 09:54:50;;;;;;;11.22;7.28;;;;;;;3.39;70.00;100052.70;1676926;83;21585;-58
2022/03/03 09:57:19;;;;;;;10.30;6.33;;;;;;;3.41;69.92;100040.45;1675215;84;21214;-59
2022/03/03 09:59:48;;;;;;;10.05;6.37;;;;;;;3.44;69.50;100044.19;1674519;83;21541;-58
2022/03/03 10:02:19;;;;;;;13.72;6.55;;;;;;;3.53;69.34;100046.73;1658758;84;21118;-58
2022/03/03 10:04:47;;;;;;;11.80;6.30;;;;;;;3.60;69.36;100049.82;1680990;83;21761;-59
2022/03/03 10:07:17;;;;;;;10.98;5.55;;;;;;;3.63;69.25;100049.66;1680077;83;21619;-58
2022/03/03 10:10:00;;;;;;;9.20;5.40;;;;;;;3.66;68.97;100045.11;1684645;83;22253;-59
2022/03/03 10:12:30;;;;;;;10.53;6.25;;;;;;;3.63;68.63;100041.41;1685123;83;21548;-58
2022/03/03 10:16:35;;;;;;;9.70;5.45;;;;;;;3.57;68.85;100035.23;1764783;79;23455;-60
2022/03/03 10:19:06;;;;;;;9.85;5.62;;;;;;;3.60;68.84;100036.81;1762211;80;21109;-60
2022/03/03 10:21:41;;;;;;;9.93;5.75;;;;;;;3.68;68.71;100035.92;1765652;79;21550;-60
2022/03/03 10:24:25;;;;;;;10.35;4.87;;;;;;;3.74;68.59;100039.48;1705622;82;22315;-58
2022/03/03 10:27:03;;;;;;;10.75;6.40;;;;;;;3.76;68.47;100031.59;1704003;83;21103;-60
2022/03/03 10:29:34;;;;;;;9.88;5.75;;;;;;;3.77;68.39;100030.68;1712565;81;21038;-60
2022/03/03 10:32:06;;;;;;;11.55;6.10;;;;;;;3.73;68.31;100031.29;1707377;83;21082;-59
2022/03/03 10:34:37;;;;;;;9.50;4.95;;;;;;;3.71;68.25;100031.38;1682405;81;21090;-59
2022/03/03 10:37:07;;;;;;;11.57;5.08;;;;;;;3.72;68.28;100025.73;1706784;83;21693;-58
2022/03/03 10:39:47;;;;;;;11.08;5.55;;;;;;;3.72;68.33;100023.95;1711508;81;21353;-59
2022/03/03 10:42:21;;;;;;;10.48;4.92;;;;;;;3.69;68.33;100025.90;1707328;83;21003;-59
2022/03/03 10:45:07;;;;;;;9.63;5.62;;;;;;;3.69;68.53;100018.09;1715783;81;21090;-59
2022/03/03 10:47:37;;;;;;;8.63;4.95;;;;;;;3.66;68.47;100019.09;1709330;83;21859;-60
2022/03/03 10:50:07;;;;;;;9.13;5.00;;;;;;;3.73;68.42;100015.67;1714634;81;21066;-60
2022/03/03 10:52:39;;;;;;;8.20;4.87;;;;;;;3.79;68.35;100018.41;1680262;83;21082;-60
2022/03/03 10:55:10;;;;;;;9.58;5.53;;;;;;;3.82;68.51;100018.23;1681680;83;21126;-60
2022/03/03 10:57:59;;;;;;;9.08;5.35;;;;;;;3.84;68.10;100022.88;1709245;82;21019;-59
2022/03/03 11:00:35;;;;;;;8.68;5.08;;;;;;;3.83;67.88;100019.89;1697885;83;21556;-60
2022/03/03 11:03:04;;;;;;;9.10;5.25;;;;;;;3.76;67.72;100019.87;1682970;83;21571;-60
2022/03/03 11:05:33;;;;;;;9.40;5.40;;;;;;;3.82;67.72;100017.77;1710523;81;21031;-59
2022/03/03 11:08:01;;;;;;;9.48;5.25;;;;;;;3.87;67.60;100018.80;1698952;81;21688;-58
2022/03/03 11:10:30;;;;;;;9.10;4.62;;;;;;;3.85;67.41;100004.58;1723846;81;21900;-59
2022/03/03 11:13:02;;;;;;;10.18;5.10;;;;;;;3.84;67.48;100013.77;1717860;81;20964;-59
2022/03/03 11:15:34;;;;;;;8.95;5.22;;;;;;;3.83;67.69;100015.55;1713787;81;20973;-59
2022/03/03 11:18:01;;;;;;;9.03;4.75;;;;;;;3.84;67.78;100004.66;1699974;83;21366;-59
2022/03/03 11:20:33;;;;;;;8.30;4.40;;;;;;;3.88;67.68;100007.01;1753512;80;21042;-59
2022/03/03 11:23:01;;;;;;;10.78;5.30;;;;;;;3.96;67.62;100006.55;1747539;80;21039;-59
2022/03/03 11:25:34;;;;;;;11.08;6.03;;;;;;;4.04;67.52;100005.63;1757907;80;21090;-59
2022/03/03 11:28:07;;;;;;;8.55;4.60;;;;;;;4.10;67.32;100000.52;1730536;81;21060;-59
2022/03/03 11:30:37;;;;;;;9.58;5.33;;;;;;;4.15;66.92;99996.34;1747475;80;21543;-59
2022/03/03 11:33:30;;;;;;;10.50;5.12;;;;;;;4.14;66.98;99992.91;1742261;80;21754;-60
2022/03/03 11:36:03;;;;;;;9.33;4.75;;;;;;;4.12;66.80;99994.77;1747098;80;21464;-59
2022/03/03 11:38:55;;;;;;;11.25;5.15;;;;;;;4.10;66.83;99992.70;1743132;81;20951;-59
2022/03/03 11:41:25;;;;;;;9.30;4.67;;;;;;;4.11;66.48;99984.45;1740720;80;22018;-58
2022/03/03 14:26:04;;;;;;;10.25;4.83;;;;;;;3.54;68.10;99967.30;1738633;80;21128;-58
2022/03/03 14:28:34;;;;;;;7.00;3.87;;;;;;;3.56;68.22;99975.48;1739260;80;21373;-58
2022/03/03 14:31:03;;;;;;;7.70;3.50;;;;;;;3.54;67.89;99971.20;1730438;80;21570;-57
2022/03/03 14:33:35;;;;;;;8.08;3.98;;;;;;;3.53;67.86;99969.98;1706275;82;21597;-58
2022/03/03 14:36:06;;;;;;;7.05;3.77;;;;;;;3.52;67.95;99974.83;1710428;82;21052;-57
2022/03/03 14:38:38;;;;;;;8.23;3.65;;;;;;;3.46;67.96;99970.83;1715759;82;21070;-57
2022/03/03 14:41:09;;;;;;;8.23;3.62;;;;;;;3.47;67.98;99978.16;1738708;81;21525;-57
2022/03/03 14:43:39;;;;;;;8.15;3.75;;;;;;;3.47;67.97;99980.77;1732269;80;21071;-58
2022/03/03 14:46:09;;;;;;;7.50;3.80;;;;;;;3.46;68.23;99976.03;1731790;80;21597;-57
2022/03/03 14:48:40;;;;;;;9.10;3.60;;;;;;;3.44;68.13;99971.83;1727261;80;21594;-59
2022/03/03 14:51:10;;;;;;;6.40;2.83;;;;;;;3.41;68.21;99978.50;1732205;80;21054;-58
2022/03/03 14:53:42;;;;;;;8.83;4.08;;;;;;;3.38;68.53;99967.83;1699351;82;21074;-61
2022/03/03 14:56:14;;;;;;;6.15;3.17;;;;;;;3.38;68.75;99973.02;1699604;81;21624;-58
2022/03/03 14:58:45;;;;;;;8.50;4.20;;;;;;;3.36;69.01;99970.95;1703928;82;21074;-57
2022/03/03 15:01:15;;;;;;;7.60;4.05;;;;;;;3.30;69.17;99975.22;1722057;81;21082;-59
2022/03/03 15:03:47;;;;;;;7.53;3.42;;;;;;;3.25;69.35;99975.94;1722055;81;21121;-59
2022/03/03 15:06:15;;;;;;;7.37;3.70;;;;;;;3.25;69.57;99977.23;1719403;81;21078;-59
2022/03/03 15:08:44;;;;;;;7.65;3.77;;;;;;;3.27;69.64;99977.98;1699854;82;21138;-58
2022/03/03 15:11:18;;;;;;;7.67;3.33;;;;;;;3.27;69.81;99979.28;1722965;81;21511;-58
2022/03/03 15:13:48;;;;;;;8.75;4.25;;;;;;;3.23;69.72;99975.16;1720422;81;21059;-59
2022/03/03 15:16:19;;;;;;;8.83;3.80;;;;;;;3.17;69.87;99971.16;1728069;81;20999;-59
2022/03/03 15:18:49;;;;;;;7.55;3.42;;;;;;;3.21;69.91;99978.31;1727276;81;21593;-60
2022/03/03 15:21:19;;;;;;;8.25;3.55;;;;;;;3.23;69.98;99976.46;1708160;81;21063;-59
2022/03/03 15:23:50;;;;;;;8.60;3.92;;;;;;;3.27;70.06;99985.78;1729812;81;21101;-59
2022/03/03 15:26:21;;;;;;;9.35;4.03;;;;;;;3.26;70.04;99982.36;1738788;80;21023;-59
2022/03/03 15:28:52;;;;;;;10.90;3.72;;;;;;;3.25;70.06;99986.34;1749861;79;21560;-59
2022/03/03 15:31:22;;;;;;;7.65;3.72;;;;;;;3.24;70.04;99988.55;1756072;80;21023;-59
2022/03/03 15:36:45;;;;;;;9.73;5.28;;;;;;;3.24;70.05;99993.75;1753241;80;21096;-59
2022/03/03 15:39:17;;;;;;;8.10;4.12;;;;;;;3.23;70.15;100002.02;1717674;80;21081;-60
2022/03/03 15:41:47;;;;;;;9.23;4.97;;;;;;;3.21;70.25;100005.62;1751969;79;21077;-59
2022/03/03 15:44:16;;;;;;;10.20;4.37;;;;;;;3.16;70.30;100007.16;1753853;79;21058;-59
2022/03/03 15:46:46;;;;;;;7.35;4.35;;;;;;;3.17;70.25;100006.25;1758275;79;21602;-59
2022/03/03 15:49:17;;;;;;;7.95;4.17;;;;;;;3.21;70.30;100003.02;1758453;80;21109;-59
2022/03/03 15:51:47;;;;;;;7.55;4.08;;;;;;;3.19;70.36;100002.27;1725916;81;21601;-60
2022/03/03 15:54:17;;;;;;;8.40;4.47;;;;;;;3.13;70.40;100010.79;1759430;79;21363;-59
2022/03/03 15:56:47;;;;;;;6.53;3.85;;;;;;;3.08;70.48;100006.30;1725638;81;21014;-60
2022/03/03 15:59:16;;;;;;;8.10;3.92;;;;;;;3.08;70.47;100010.67;1753131;79;21072;-59
2022/03/03 16:01:44;;;;;;;6.90;3.90;;;;;;;3.09;70.44;100013.20;1760100;80;21140;-59
2022/03/03 16:04:14;;;;;;;8.70;4.28;;;;;;;3.08;70.50;100011.50;1736826;80;21288;-60
2022/03/03 16:06:41;;;;;;;7.35;4.17;;;;;;;3.05;70.54;100018.16;1703948;82;21074;-59
2022/03/03 16:09:13;;;;;;;7.72;3.95;;;;;;;2.98;70.64;100006.44;1704804;83;21050;-59